createdAt,value
2022-08-01T00:01:44.538Z,21.32
2022-08-01T00:04:10.927Z,21.28
2022-08-01T00:06:37.317Z,21.23
2022-08-01T00:09:03.682Z,21.09
2022-08-01T00:11:30.061Z,21.22
2022-08-01T00:13:56.491Z,20.99
2022-08-01T00:16:22.916Z,20.82
2022-08-01T00:18:49.348Z,20.77
2022-08-01T00:21:15.734Z,20.76
2022-08-01T00:23:42.140Z,20.80
2022-08-01T00:26:08.505Z,20.88
2022-08-01T00:28:34.875Z,20.83
2022-08-01T00:31:01.259Z,20.80
2022-08-01T00:33:27.648Z,20.96
2022-08-01T00:35:54.013Z,20.92
2022-08-01T00:38:20.512Z,20.90
2022-08-01T00:40:46.889Z,21.00
2022-08-01T00:43:13.283Z,20.90
2022-08-01T00:45:39.649Z,20.89
2022-08-01T00:48:06.019Z,21.11
2022-08-01T00:50:32.462Z,20.98
2022-08-01T00:52:58.830Z,20.87
2022-08-01T00:55:25.191Z,20.74
2022-08-01T00:58:02.833Z,20.83
2022-08-01T01:00:18.096Z,20.92
2022-08-01T01:02:44.479Z,20.85
2022-08-01T01:05:10.855Z,20.98
2022-08-01T01:07:37.225Z,20.75
2022-08-01T01:10:03.606Z,20.85
2022-08-01T01:12:30.029Z,20.76
2022-08-01T01:14:56.401Z,20.71
2022-08-01T01:17:49.434Z,20.67
2022-08-01T01:19:49.137Z,20.75
2022-08-01T01:22:15.584Z,20.68
2022-08-01T01:24:42.025Z,20.58
2022-08-01T01:27:08.451Z,20.53
2022-08-01T01:29:59.432Z,20.57
2022-08-01T01:32:01.313Z,20.65
2022-08-01T01:34:27.716Z,20.59
2022-08-01T01:36:54.185Z,20.70
2022-08-01T01:39:20.552Z,20.68
2022-08-01T01:41:47.053Z,20.64
2022-08-01T01:44:13.475Z,20.74
2022-08-01T01:46:39.847Z,20.78
2022-08-01T01:49:06.307Z,20.93
2022-08-01T01:51:32.737Z,20.75
2022-08-01T01:53:59.097Z,20.57
2022-08-01T01:56:25.547Z,20.45
2022-08-01T01:58:51.913Z,20.47
2022-08-01T02:01:58.447Z,20.50
2022-08-01T02:03:44.750Z,20.85
2022-08-01T02:06:11.115Z,20.97
2022-08-01T02:08:37.505Z,20.79
2022-08-01T02:11:03.939Z,20.72
2022-08-01T02:13:30.370Z,20.44
2022-08-01T02:15:59.395Z,20.40
2022-08-01T02:18:23.915Z,20.38
2022-08-01T02:20:49.522Z,20.28
2022-08-01T02:23:15.889Z,20.23
2022-08-01T02:26:10.015Z,20.33
2022-08-01T02:28:08.765Z,20.16
2022-08-01T02:30:35.134Z,20.06
2022-08-01T02:33:01.603Z,20.32
2022-08-01T02:35:28.071Z,20.41
2022-08-01T02:37:54.431Z,20.50
2022-08-01T02:40:20.826Z,20.57
2022-08-01T02:42:47.226Z,20.29
2022-08-01T02:45:13.704Z,20.09
2022-08-01T02:47:40.128Z,20.18
2022-08-01T02:50:06.521Z,20.13
2022-08-01T02:52:32.915Z,20.21
2022-08-01T02:54:59.284Z,20.18
2022-08-01T02:57:28.974Z,20.10
2022-08-01T02:59:52.090Z,20.03
2022-08-01T03:02:18.520Z,19.93
2022-08-01T03:04:44.894Z,19.75
2022-08-01T03:07:11.321Z,19.73
2022-08-01T03:09:37.713Z,19.87
2022-08-01T03:12:04.407Z,19.86
2022-08-01T03:14:30.463Z,19.62
2022-08-01T03:16:56.917Z,19.52
2022-08-01T03:19:23.295Z,19.36
2022-08-01T03:21:49.678Z,19.39
2022-08-01T03:24:16.119Z,19.49
2022-08-01T03:26:42.475Z,19.57
2022-08-01T03:29:08.845Z,19.49
2022-08-01T03:31:35.217Z,19.57
2022-08-01T03:34:05.621Z,19.64
2022-08-01T03:36:28.068Z,19.49
2022-08-01T03:38:54.513Z,19.23
2022-08-01T03:41:20.942Z,19.08
2022-08-01T03:43:47.324Z,19.14
2022-08-01T03:46:13.682Z,19.36
2022-08-01T03:48:40.138Z,19.48
2022-08-01T03:51:06.518Z,19.47
2022-08-01T03:53:33.002Z,19.34
2022-08-01T03:55:59.435Z,19.20
2022-08-01T03:58:25.805Z,19.05
2022-08-01T04:00:52.193Z,19.34
2022-08-01T04:03:18.575Z,19.56
2022-08-01T04:05:44.935Z,19.46
2022-08-01T04:08:11.400Z,19.45
2022-08-01T04:10:37.832Z,19.41
2022-08-01T04:13:04.217Z,19.68
2022-08-01T04:15:30.578Z,19.87
2022-08-01T04:17:57.033Z,20.05
2022-08-01T04:20:23.410Z,19.95
2022-08-01T04:22:49.895Z,19.94
2022-08-01T04:25:16.263Z,20.14
2022-08-01T04:27:49.864Z,20.28
2022-08-01T04:30:09.017Z,20.14
2022-08-01T04:32:35.526Z,20.34
2022-08-01T04:35:01.906Z,20.49
2022-08-01T04:37:28.296Z,20.23
2022-08-01T04:39:54.681Z,20.52
2022-08-01T04:42:25.193Z,20.64
2022-08-01T04:44:47.410Z,20.76
2022-08-01T04:47:13.813Z,20.92
2022-08-01T04:49:49.066Z,21.46
2022-08-01T04:52:06.831Z,21.64
2022-08-01T04:54:32.947Z,21.85
2022-08-01T04:56:59.307Z,22.05
2022-08-01T04:59:25.674Z,22.28
2022-08-01T05:01:52.177Z,22.53
2022-08-01T05:04:18.413Z,22.94
2022-08-01T05:06:44.797Z,23.12
2022-08-01T05:09:11.178Z,23.49
2022-08-01T05:11:37.559Z,23.81
2022-08-01T05:14:03.918Z,24.02
2022-08-01T05:16:32.878Z,24.18
2022-08-01T05:18:59.264Z,24.73
2022-08-01T05:21:25.628Z,26.40
2022-08-01T05:23:52.042Z,28.32
2022-08-01T05:26:18.422Z,29.24
2022-08-01T05:28:44.798Z,29.14
2022-08-01T05:31:11.255Z,28.63
2022-08-01T05:33:37.711Z,27.29
2022-08-01T05:36:04.012Z,27.34
2022-08-01T05:38:30.382Z,28.03
2022-08-01T05:40:56.799Z,28.77
2022-08-01T05:43:28.182Z,29.11
2022-08-01T05:45:49.762Z,29.25
2022-08-01T05:48:16.140Z,29.37
2022-08-01T05:50:42.602Z,29.54
2022-08-01T05:53:09.050Z,29.24
2022-08-01T05:55:35.477Z,29.14
2022-08-01T05:58:01.836Z,29.92
2022-08-01T06:00:28.235Z,30.56
2022-08-01T06:02:54.610Z,30.05
2022-08-01T06:05:21.013Z,29.45
2022-08-01T06:07:47.433Z,28.80
2022-08-01T06:10:14.069Z,28.34
2022-08-01T06:12:40.431Z,29.37
2022-08-01T06:15:06.934Z,29.41
2022-08-01T06:17:33.340Z,29.80
2022-08-01T06:19:59.712Z,29.77
2022-08-01T06:22:26.099Z,29.63
2022-08-01T06:24:52.690Z,29.31
2022-08-01T06:27:21.941Z,29.64
2022-08-01T06:29:50.377Z,29.20
2022-08-01T06:32:11.822Z,29.82
2022-08-01T06:34:38.203Z,29.91
2022-08-01T06:37:06.253Z,30.25
2022-08-01T06:39:30.983Z,30.21
2022-08-01T06:41:57.349Z,30.09
2022-08-01T06:44:23.841Z,30.21
2022-08-01T06:46:50.200Z,30.06
2022-08-01T06:49:16.612Z,30.24
2022-08-01T06:51:43.027Z,30.35
2022-08-01T06:54:09.396Z,29.93
2022-08-01T06:56:35.779Z,30.10
2022-08-01T06:59:02.224Z,29.73
2022-08-01T07:01:28.722Z,29.50
2022-08-01T07:03:55.177Z,29.62
2022-08-01T07:06:21.522Z,29.76
2022-08-01T07:08:47.954Z,29.34
2022-08-01T07:11:14.334Z,29.66
2022-08-01T07:13:43.914Z,30.18
2022-08-01T07:16:07.148Z,29.78
2022-08-01T07:18:33.583Z,30.15
2022-08-01T07:21:00.011Z,30.37
2022-08-01T07:23:30.392Z,30.08
2022-08-01T07:25:53.394Z,29.91
2022-08-01T07:28:19.322Z,30.41
2022-08-01T07:30:45.698Z,30.56
2022-08-01T07:33:12.190Z,30.39
2022-08-01T07:35:38.614Z,29.76
2022-08-01T07:38:05.785Z,29.81
2022-08-01T07:40:31.472Z,29.10
2022-08-01T07:42:57.916Z,28.97
2022-08-01T07:45:24.490Z,28.76
2022-08-01T07:47:50.853Z,29.33
2022-08-01T07:50:17.227Z,30.18
2022-08-01T07:52:43.644Z,30.61
2022-08-01T07:55:10.009Z,30.99
2022-08-01T07:57:36.433Z,30.54
2022-08-01T08:00:02.841Z,30.28
2022-08-01T08:02:29.242Z,29.75
2022-08-01T08:04:55.594Z,30.00
2022-08-01T08:07:21.978Z,30.37
2022-08-01T08:09:50.987Z,30.25
2022-08-01T08:12:14.705Z,30.49
2022-08-01T08:14:41.132Z,30.21
2022-08-01T08:17:07.596Z,30.31
2022-08-01T08:19:37.905Z,30.33
2022-08-01T08:22:00.434Z,30.07
2022-08-01T08:24:27.320Z,30.59
2022-08-01T08:26:53.303Z,30.61
2022-08-01T08:29:19.678Z,30.75
2022-08-01T08:31:51.354Z,31.01
2022-08-01T08:34:12.597Z,31.31
2022-08-01T08:36:39.024Z,30.98
2022-08-01T08:39:05.408Z,31.27
2022-08-01T08:41:37.933Z,30.66
2022-08-01T08:43:58.298Z,30.90
2022-08-01T08:46:28.207Z,30.97
2022-08-01T08:48:51.095Z,31.14
2022-08-01T08:51:17.469Z,31.12
2022-08-01T08:53:43.849Z,30.91
2022-08-01T08:56:10.293Z,31.06
2022-08-01T08:58:36.657Z,31.15
2022-08-01T09:01:03.062Z,31.20
2022-08-01T09:03:29.547Z,31.95
2022-08-01T09:05:55.921Z,32.00
2022-08-01T09:08:22.321Z,31.49
2022-08-01T09:10:48.687Z,31.24
2022-08-01T09:13:15.064Z,31.18
2022-08-01T09:15:41.555Z,31.31
2022-08-01T09:18:07.939Z,31.74
2022-08-01T09:20:34.346Z,31.75
2022-08-01T09:23:00.707Z,31.27
2022-08-01T09:25:29.557Z,30.96
2022-08-01T09:27:53.503Z,31.28
2022-08-01T09:30:23.637Z,31.76
2022-08-01T09:32:46.251Z,32.02
2022-08-01T09:35:12.613Z,32.20
2022-08-01T09:37:38.975Z,32.53
2022-08-01T09:40:07.724Z,32.46
2022-08-01T09:42:34.126Z,32.52
2022-08-01T09:45:00.492Z,32.40
2022-08-01T09:47:26.852Z,32.48
2022-08-01T09:49:53.290Z,32.45
2022-08-01T09:52:19.599Z,32.51
2022-08-01T09:54:46.018Z,33.01
2022-08-01T09:57:12.398Z,32.80
2022-08-01T09:59:57.403Z,33.18
2022-08-01T10:02:05.128Z,32.00
2022-08-01T10:04:32.516Z,32.10
2022-08-01T10:06:58.907Z,32.56
2022-08-01T10:09:25.323Z,32.74
2022-08-01T10:11:51.700Z,32.77
2022-08-01T10:14:19.219Z,31.96
2022-08-01T10:16:45.602Z,32.19
2022-08-01T10:19:15.338Z,32.35
2022-08-01T10:21:49.241Z,32.78
2022-08-01T10:24:04.951Z,32.78
2022-08-01T10:26:31.388Z,33.18
2022-08-01T10:28:57.817Z,32.88
2022-08-01T10:31:30.587Z,32.56
2022-08-01T10:33:53.605Z,32.34
2022-08-01T10:36:17.074Z,32.62
2022-08-01T10:38:43.553Z,33.04
2022-08-01T10:41:09.932Z,32.43
2022-08-01T10:43:36.594Z,31.33
2022-08-01T10:46:02.817Z,31.55
2022-08-01T10:48:29.669Z,32.23
2022-08-01T10:50:55.616Z,32.28
2022-08-01T10:53:24.100Z,32.90
2022-08-01T10:55:48.424Z,33.11
2022-08-01T10:58:15.957Z,33.32
2022-08-01T11:00:41.293Z,33.06
2022-08-01T11:03:07.776Z,32.43
2022-08-01T11:05:34.211Z,32.46
2022-08-01T11:08:00.590Z,32.29
2022-08-01T11:10:26.958Z,31.92
2022-08-01T11:12:53.406Z,31.68
2022-08-01T11:15:29.489Z,31.66
2022-08-01T11:17:46.271Z,31.38
2022-08-01T11:20:13.687Z,32.01
2022-08-01T11:22:38.997Z,32.38
2022-08-01T11:25:05.369Z,32.31
2022-08-01T11:27:33.769Z,32.26
2022-08-01T11:29:58.196Z,31.72
2022-08-01T11:32:24.579Z,31.52
2022-08-01T11:34:51.014Z,31.69
2022-08-01T11:37:17.360Z,31.50
2022-08-01T11:39:43.792Z,31.72
2022-08-01T11:42:10.290Z,31.85
2022-08-01T11:44:36.730Z,32.01
2022-08-01T11:47:08.775Z,32.10
2022-08-01T11:49:29.758Z,31.73
2022-08-01T11:51:56.014Z,31.68
2022-08-01T11:54:35.596Z,31.63
2022-08-01T11:56:48.870Z,31.20
2022-08-01T11:59:15.377Z,31.09
2022-08-01T12:01:41.643Z,31.09
2022-08-01T12:04:08.010Z,31.50
2022-08-01T12:06:34.377Z,31.23
2022-08-01T12:09:00.858Z,31.07
2022-08-01T12:11:27.223Z,31.46
2022-08-01T12:13:53.644Z,31.77
2022-08-01T12:16:20.056Z,31.60
2022-08-01T12:18:46.431Z,31.32
2022-08-01T12:21:12.849Z,31.29
2022-08-01T12:23:39.249Z,31.32
2022-08-01T12:26:05.637Z,31.37
2022-08-01T12:28:32.005Z,31.62
2022-08-01T12:30:58.439Z,31.47
2022-08-01T12:33:24.833Z,31.16
2022-08-01T12:35:51.212Z,31.15
2022-08-01T12:38:17.584Z,31.10
2022-08-01T12:40:45.648Z,30.44
2022-08-01T12:43:15.790Z,30.16
2022-08-01T12:45:36.813Z,30.43
2022-08-01T12:48:03.186Z,30.67
2022-08-01T12:50:29.608Z,30.82
2022-08-01T12:52:55.990Z,30.65
2022-08-01T12:55:22.362Z,30.30
2022-08-01T12:57:48.803Z,30.50
2022-08-01T13:00:15.181Z,30.35
2022-08-01T13:02:41.666Z,30.30
2022-08-01T13:05:08.051Z,30.65
2022-08-01T13:07:43.519Z,30.56
2022-08-01T13:10:00.908Z,30.51
2022-08-01T13:12:27.296Z,30.27
2022-08-01T13:14:53.729Z,30.21
2022-08-01T13:17:20.095Z,29.90
2022-08-01T13:19:46.499Z,30.05
2022-08-01T13:22:12.887Z,30.01
2022-08-01T13:24:39.249Z,29.93
2022-08-01T13:27:05.694Z,29.86
2022-08-01T13:29:32.012Z,29.98
2022-08-01T13:31:58.394Z,30.30
2022-08-01T13:34:24.756Z,30.63
2022-08-01T13:36:51.151Z,30.19
2022-08-01T13:39:17.531Z,29.71
2022-08-01T13:41:43.980Z,29.74
2022-08-01T13:44:10.413Z,29.58
2022-08-01T13:46:36.788Z,29.48
2022-08-01T13:49:15.923Z,29.71
2022-08-01T13:51:29.612Z,29.74
2022-08-01T13:53:56.189Z,29.90
2022-08-01T13:56:22.538Z,29.89
2022-08-01T13:58:48.902Z,29.71
2022-08-01T14:01:15.348Z,29.56
2022-08-01T14:03:41.678Z,29.49
2022-08-01T14:06:08.105Z,29.34
2022-08-01T14:08:34.465Z,29.39
2022-08-01T14:11:00.972Z,29.48
2022-08-01T14:13:32.115Z,29.41
2022-08-01T14:15:53.772Z,29.22
2022-08-01T14:18:20.170Z,29.18
2022-08-01T14:20:46.534Z,29.17
2022-08-01T14:23:12.908Z,29.39
2022-08-01T14:26:01.782Z,29.49
2022-08-01T14:28:05.656Z,29.56
2022-08-01T14:30:32.046Z,29.38
2022-08-01T14:32:58.433Z,29.35
2022-08-01T14:35:24.806Z,29.38
2022-08-01T14:37:51.326Z,29.41
2022-08-01T14:40:19.774Z,29.42
2022-08-01T14:42:44.188Z,29.49
2022-08-01T14:45:10.587Z,29.41
2022-08-01T14:47:37.070Z,29.50
2022-08-01T14:50:03.431Z,29.46
2022-08-01T14:52:29.801Z,29.41
2022-08-01T14:54:56.255Z,29.60
2022-08-01T14:57:22.642Z,29.67
2022-08-01T14:59:49.047Z,29.75
2022-08-01T15:02:15.428Z,29.80
2022-08-01T15:04:41.800Z,29.68
2022-08-01T15:07:08.322Z,29.58
2022-08-01T15:09:34.738Z,29.41
2022-08-01T15:12:01.113Z,29.19
2022-08-01T15:14:27.470Z,29.07
2022-08-01T15:16:53.942Z,29.08
2022-08-01T15:19:20.312Z,29.11
2022-08-01T15:21:46.707Z,29.09
2022-08-01T15:24:13.145Z,29.16
2022-08-01T15:26:39.504Z,29.21
2022-08-01T15:29:05.908Z,29.17
2022-08-01T15:31:32.339Z,29.22
2022-08-01T15:33:58.707Z,29.28
2022-08-01T15:36:25.907Z,29.27
2022-08-01T15:38:51.595Z,29.29
2022-08-01T15:41:18.026Z,29.15
2022-08-01T15:43:44.946Z,29.10
2022-08-01T15:46:10.792Z,29.03
2022-08-01T15:48:40.113Z,28.96
2022-08-01T15:51:03.576Z,28.92
2022-08-01T15:53:29.939Z,28.98
2022-08-01T15:55:56.358Z,28.96
2022-08-01T15:58:22.915Z,28.91
2022-08-01T16:00:49.304Z,29.02
2022-08-01T16:03:15.700Z,29.00
2022-08-01T16:05:44.079Z,28.90
2022-08-01T16:08:08.432Z,28.94
2022-08-01T16:10:34.799Z,28.92
2022-08-01T16:13:06.745Z,28.88
2022-08-01T16:15:36.097Z,28.81
2022-08-01T16:17:53.932Z,28.71
2022-08-01T16:20:20.388Z,28.64
2022-08-01T16:22:46.750Z,28.52
2022-08-01T16:25:13.130Z,28.57
2022-08-01T16:27:39.527Z,28.57
2022-08-01T16:30:05.889Z,28.56
2022-08-01T16:32:47.060Z,28.52
2022-08-01T16:34:58.656Z,28.57
2022-08-01T16:37:25.104Z,28.62
2022-08-01T16:39:51.468Z,28.56
2022-08-01T16:42:17.857Z,28.56
2022-08-01T16:44:44.214Z,28.57
2022-08-01T16:47:11.129Z,28.54
2022-08-01T16:49:37.150Z,28.46
2022-08-01T16:52:03.595Z,28.46
2022-08-01T16:54:29.915Z,28.46
2022-08-01T16:56:56.285Z,28.38
2022-08-01T16:59:22.617Z,28.34
2022-08-01T17:02:00.166Z,28.36
2022-08-01T17:04:15.370Z,28.30
2022-08-01T17:06:41.804Z,28.25
2022-08-01T17:09:08.228Z,28.25
2022-08-01T17:11:34.590Z,28.23
2022-08-01T17:14:00.973Z,28.19
2022-08-01T17:16:27.372Z,28.19
2022-08-01T17:18:53.739Z,28.21
2022-08-01T17:21:20.191Z,28.11
2022-08-01T17:23:46.569Z,28.11
2022-08-01T17:26:12.932Z,27.99
2022-08-01T17:28:39.299Z,27.96
2022-08-01T17:31:09.384Z,27.97
2022-08-01T17:33:45.530Z,27.90
2022-08-01T17:35:58.500Z,27.89
2022-08-01T17:38:24.878Z,27.90
2022-08-01T17:40:51.256Z,27.77
2022-08-01T17:43:17.616Z,27.77
2022-08-01T17:45:50.826Z,27.70
2022-08-01T17:48:10.405Z,27.66
2022-08-01T17:50:36.764Z,27.60
2022-08-01T17:53:03.128Z,27.54
2022-08-01T17:55:54.069Z,27.45
2022-08-01T17:57:55.959Z,27.43
2022-08-01T18:00:22.415Z,27.32
2022-08-01T18:02:48.833Z,27.24
2022-08-01T18:05:15.720Z,27.24
2022-08-01T18:08:01.965Z,27.19
2022-08-01T18:10:11.675Z,27.13
2022-08-01T18:12:34.388Z,27.10
2022-08-01T18:15:00.793Z,27.00
2022-08-01T18:17:27.194Z,26.93
2022-08-01T18:19:53.567Z,26.90
2022-08-01T18:22:33.874Z,26.80
2022-08-01T18:24:46.429Z,26.74
2022-08-01T18:27:12.783Z,26.70
2022-08-01T18:29:47.363Z,26.62
2022-08-01T18:32:05.718Z,26.48
2022-08-01T18:34:32.091Z,26.43
2022-08-01T18:36:58.487Z,26.38
2022-08-01T18:39:24.873Z,26.34
2022-08-01T18:41:51.253Z,26.36
2022-08-01T18:44:17.618Z,26.30
2022-08-01T18:46:44.003Z,26.27
2022-08-01T18:49:10.466Z,26.22
2022-08-01T18:51:42.997Z,26.11
2022-08-01T18:54:03.169Z,26.05
2022-08-01T18:56:29.535Z,26.00
2022-08-01T18:58:55.906Z,26.02
2022-08-01T19:01:22.361Z,26.03
2022-08-01T19:03:48.753Z,26.03
2022-08-01T19:06:15.148Z,26.02
2022-08-01T19:08:41.519Z,25.95
2022-08-01T19:11:07.888Z,25.88
2022-08-01T19:13:34.317Z,25.76
2022-08-01T19:16:00.699Z,25.62
2022-08-01T19:18:27.063Z,25.65
2022-08-01T19:20:53.497Z,25.77
2022-08-01T19:23:19.832Z,25.74
2022-08-01T19:25:55.443Z,25.72
2022-08-01T19:28:12.683Z,25.75
2022-08-01T19:30:39.203Z,25.56
2022-08-01T19:33:05.628Z,25.41
2022-08-01T19:35:31.987Z,25.47
2022-08-01T19:37:58.385Z,25.42
2022-08-01T19:40:27.505Z,25.25
2022-08-01T19:42:51.258Z,25.20
2022-08-01T19:45:17.629Z,25.32
2022-08-01T19:47:51.622Z,25.40
2022-08-01T19:50:10.386Z,25.41
2022-08-01T19:52:36.782Z,25.37
2022-08-01T19:55:03.214Z,25.34
2022-08-01T19:57:44.581Z,25.29
2022-08-01T19:59:56.100Z,25.29
2022-08-01T20:02:22.520Z,25.18
2022-08-01T20:04:48.953Z,25.10
2022-08-01T20:07:15.360Z,25.03
2022-08-01T20:09:41.735Z,24.97
2022-08-01T20:12:08.098Z,24.98
2022-08-01T20:14:34.476Z,24.97
2022-08-01T20:17:00.864Z,24.99
2022-08-01T20:19:27.250Z,25.07
2022-08-01T20:22:02.270Z,25.01
2022-08-01T20:24:20.046Z,24.91
2022-08-01T20:26:46.434Z,24.79
2022-08-01T20:29:12.815Z,24.80
2022-08-01T20:31:44.168Z,24.73
2022-08-01T20:34:05.562Z,24.78
2022-08-01T20:36:31.974Z,24.67
2022-08-01T20:38:58.354Z,24.54
2022-08-01T20:41:24.721Z,24.46
2022-08-01T20:43:51.083Z,24.40
2022-08-01T20:46:17.495Z,24.39
2022-08-01T20:48:43.925Z,24.35
2022-08-01T20:51:10.360Z,24.36
2022-08-01T20:53:36.724Z,24.31
2022-08-01T20:56:03.128Z,24.26
2022-08-01T20:58:29.558Z,24.23
2022-08-01T21:00:55.958Z,24.19
2022-08-01T21:03:22.301Z,24.14
2022-08-01T21:05:56.027Z,24.23
2022-08-01T21:08:15.122Z,24.26
2022-08-01T21:10:41.623Z,24.20
2022-08-01T21:13:07.989Z,24.13
2022-08-01T21:15:34.372Z,24.15
2022-08-01T21:18:00.820Z,24.06
2022-08-01T21:20:27.177Z,23.98
2022-08-01T21:22:53.583Z,23.99
2022-08-01T21:25:19.964Z,23.94
2022-08-01T21:27:46.446Z,23.93
2022-08-01T21:30:12.835Z,23.94
2022-08-01T21:32:39.220Z,23.90
2022-08-01T21:35:05.577Z,23.86
2022-08-01T21:37:32.087Z,23.87
2022-08-01T21:39:58.473Z,23.85
2022-08-01T21:42:25.242Z,23.79
2022-08-01T21:44:51.274Z,23.69
2022-08-01T21:47:17.700Z,23.62
2022-08-01T21:49:44.069Z,23.66
2022-08-01T21:52:10.696Z,23.75
2022-08-01T21:54:36.851Z,23.75
2022-08-01T21:57:03.335Z,23.76
2022-08-01T21:59:29.695Z,23.85
2022-08-01T22:01:56.093Z,23.84
2022-08-01T22:04:22.486Z,23.75
2022-08-01T22:06:48.855Z,23.79
2022-08-01T22:09:15.215Z,23.86
2022-08-01T22:12:01.341Z,23.89
2022-08-01T22:14:07.985Z,23.77
2022-08-01T22:16:34.347Z,23.63
2022-08-01T22:19:00.730Z,23.67
2022-08-01T22:21:27.565Z,23.57
2022-08-01T22:23:53.947Z,23.53
2022-08-01T22:26:20.433Z,23.43
2022-08-01T22:28:46.838Z,23.35
2022-08-01T22:31:13.256Z,23.33
2022-08-01T22:33:39.626Z,23.27
2022-08-01T22:36:06.060Z,23.26
2022-08-01T22:38:32.495Z,23.36
2022-08-01T22:40:58.928Z,23.31
2022-08-01T22:43:25.326Z,23.21
2022-08-01T22:45:51.688Z,23.13
2022-08-01T22:48:18.122Z,23.12
2022-08-01T22:50:44.506Z,23.01
2022-08-01T22:53:10.990Z,22.99
2022-08-01T22:55:58.290Z,22.96
2022-08-01T22:58:03.855Z,22.73
2022-08-01T23:00:30.217Z,22.68
2022-08-01T23:02:56.723Z,22.75
2022-08-01T23:05:23.109Z,22.69
2022-08-01T23:07:49.462Z,22.52
2022-08-01T23:10:15.874Z,22.41
2022-08-01T23:12:42.346Z,22.36
2022-08-01T23:15:08.785Z,22.05
2022-08-01T23:17:35.143Z,21.61
2022-08-01T23:20:01.566Z,21.54
2022-08-01T23:22:27.924Z,21.47
2022-08-01T23:25:04.278Z,21.43
2022-08-01T23:27:20.743Z,21.37
2022-08-01T23:29:47.180Z,21.30
2022-08-01T23:32:13.710Z,21.41
2022-08-01T23:34:39.935Z,21.62
2022-08-01T23:37:06.322Z,21.65
2022-08-01T23:39:32.720Z,21.67
2022-08-01T23:42:00.990Z,21.66
2022-08-01T23:44:25.607Z,21.60
2022-08-01T23:46:51.971Z,21.60
2022-08-01T23:49:18.464Z,21.51
2022-08-01T23:51:44.869Z,21.39
2022-08-01T23:54:11.236Z,21.18
2022-08-01T23:56:37.599Z,20.93
2022-08-01T23:59:03.981Z,20.89
